createdAt,value
2022-08-09T00:00:46.113Z,97662.12
2022-08-09T00:04:00.447Z,97658.83
2022-08-09T00:06:18.016Z,97655.53
2022-08-09T00:08:32.594Z,97660.19
2022-08-09T00:10:49.862Z,97657.72
2022-08-09T00:13:19.499Z,97650.61
2022-08-09T00:15:58.815Z,97652.53
2022-08-09T00:18:20.800Z,97652.53
2022-08-09T00:20:51.309Z,97661.83
2022-08-09T00:23:56.241Z,97661.00
2022-08-09T00:25:53.947Z,97672.24
2022-08-09T00:28:27.202Z,97688.12
2022-08-09T00:30:56.961Z,97690.30
2022-08-09T00:33:32.820Z,97693.04
2022-08-09T00:36:00.005Z,97699.62
2022-08-09T00:38:31.254Z,97711.09
2022-08-09T00:41:02.852Z,97712.47
2022-08-09T00:44:13.141Z,97707.84
2022-08-09T00:46:09.216Z,97703.18
2022-08-09T00:48:40.677Z,97691.92
2022-08-09T00:51:13.098Z,97682.63
2022-08-09T00:53:42.848Z,97685.36
2022-08-09T00:56:14.475Z,97685.63
2022-08-09T00:58:49.068Z,97685.92
2022-08-09T01:01:19.537Z,97684.27
2022-08-09T01:04:08.830Z,97681.52
2022-08-09T01:06:54.396Z,97684.00
2022-08-09T01:09:49.117Z,97692.77
2022-08-09T01:12:34.142Z,97690.84
2022-08-09T01:15:17.588Z,97678.23
2022-08-09T01:18:04.763Z,97687.29
2022-08-09T01:21:03.071Z,97691.66
2022-08-09T01:24:05.038Z,97691.92
2022-08-09T01:26:55.379Z,97697.95
2022-08-09T01:29:40.997Z,97703.97
2022-08-09T01:32:31.030Z,97711.02
2022-08-09T01:34:44.562Z,97713.80
2022-08-09T01:37:15.428Z,97718.17
2022-08-09T01:39:48.573Z,97717.93
2022-08-09T01:42:22.293Z,97722.30
2022-08-09T01:44:55.129Z,97713.81
2022-08-09T01:47:27.355Z,97713.27
2022-08-09T01:50:02.006Z,97705.61
2022-08-09T01:52:31.799Z,97713.53
2022-08-09T01:55:02.105Z,97726.41
2022-08-09T01:57:40.220Z,97737.09
2022-08-09T02:00:34.312Z,97739.53
2022-08-09T02:02:52.105Z,97750.78
2022-08-09T02:05:37.871Z,97750.49
2022-08-09T02:08:41.254Z,97769.39
2022-08-09T02:10:33.627Z,97769.39
2022-08-09T02:13:04.958Z,97780.52
2022-08-09T02:15:50.606Z,97774.77
2022-08-09T02:18:25.056Z,97767.71
2022-08-09T02:20:58.700Z,97775.09
2022-08-09T02:23:40.058Z,97783.86
2022-08-09T02:26:25.047Z,97780.75
2022-08-09T02:28:47.782Z,97783.22
2022-08-09T02:31:27.441Z,97782.70
2022-08-09T02:34:11.045Z,97783.80
2022-08-09T02:36:36.907Z,97784.66
2022-08-09T02:39:33.267Z,97783.54
2022-08-09T02:41:59.301Z,97793.11
2022-08-09T02:44:30.323Z,97795.89
2022-08-09T02:47:01.980Z,97799.19
2022-08-09T02:49:38.439Z,97799.19
2022-08-09T02:52:07.930Z,97802.75
2022-08-09T02:54:51.143Z,97806.73
2022-08-09T02:57:13.860Z,97807.56
2022-08-09T03:00:11.417Z,97802.12
2022-08-09T03:02:24.228Z,97803.80
2022-08-09T03:04:55.960Z,97800.25
2022-08-09T03:07:26.688Z,97806.29
2022-08-09T03:10:00.367Z,97811.78
2022-08-09T03:12:29.287Z,97813.14
2022-08-09T03:15:02.651Z,97810.42
2022-08-09T03:17:34.035Z,97807.94
2022-08-09T03:20:11.336Z,97801.95
2022-08-09T03:22:42.021Z,97802.77
2022-08-09T03:25:26.731Z,97807.70
2022-08-09T03:27:45.933Z,97809.34
2022-08-09T03:30:29.335Z,97815.63
2022-08-09T03:32:48.046Z,97815.38
2022-08-09T03:35:44.117Z,97816.20
2022-08-09T03:37:56.105Z,97818.12
2022-08-09T03:40:21.975Z,97815.10
2022-08-09T03:42:56.260Z,97819.50
2022-08-09T03:46:03.134Z,97818.40
2022-08-09T03:47:57.827Z,97828.28
2022-08-09T03:50:31.756Z,97828.55
2022-08-09T03:53:01.611Z,97834.81
2022-08-09T03:55:36.072Z,97855.64
2022-08-09T03:58:09.786Z,97850.18
2022-08-09T04:00:35.945Z,97851.56
2022-08-09T04:03:08.460Z,97855.38
2022-08-09T04:05:40.699Z,97856.49
2022-08-09T04:08:11.572Z,97849.09
2022-08-09T04:10:41.413Z,97848.00
2022-08-09T04:13:11.934Z,97845.00
2022-08-09T04:16:17.966Z,97845.81
2022-08-09T04:18:19.239Z,97840.08
2022-08-09T04:20:51.743Z,97836.50
2022-08-09T04:23:23.111Z,97830.75
2022-08-09T04:25:57.005Z,97824.47
2022-08-09T04:28:33.661Z,97823.37
2022-08-09T04:30:58.517Z,97814.89
2022-08-09T04:33:28.902Z,97815.16
2022-08-09T04:35:59.144Z,97820.38
2022-08-09T04:38:29.266Z,97819.83
2022-08-09T04:40:58.978Z,97812.98
2022-08-09T04:43:28.649Z,97824.20
2022-08-09T04:46:00.250Z,97821.76
2022-08-09T04:48:33.469Z,97834.33
2022-08-09T04:51:02.270Z,97830.77
2022-08-09T04:53:32.919Z,97838.44
2022-08-09T04:56:04.116Z,97836.81
2022-08-09T04:58:37.934Z,97844.73
2022-08-09T05:01:16.257Z,97853.77
2022-08-09T05:03:42.823Z,97855.70
2022-08-09T05:06:22.128Z,97861.73
2022-08-09T05:08:47.735Z,97866.66
2022-08-09T05:11:20.022Z,97867.77
2022-08-09T05:13:49.119Z,97876.55
2022-08-09T05:16:18.848Z,97876.22
2022-08-09T05:18:58.128Z,97887.45
2022-08-09T05:21:24.504Z,97885.55
2022-08-09T05:24:00.508Z,97887.48
2022-08-09T05:26:37.032Z,97882.00
2022-08-09T05:28:56.523Z,97875.69
2022-08-09T05:31:44.997Z,97884.20
2022-08-09T05:33:58.082Z,97889.94
2022-08-09T05:36:28.906Z,97885.28
2022-08-09T05:38:58.718Z,97885.58
2022-08-09T05:41:28.269Z,97888.31
2022-08-09T05:43:57.820Z,97891.56
2022-08-09T05:46:28.526Z,97886.64
2022-08-09T05:48:59.307Z,97883.07
2022-08-09T05:51:42.996Z,97886.38
2022-08-09T05:54:00.776Z,97883.38
2022-08-09T05:56:30.487Z,97878.17
2022-08-09T05:59:00.163Z,97872.95
2022-08-09T06:01:34.152Z,97871.33
2022-08-09T06:04:05.509Z,97869.41
2022-08-09T06:06:35.324Z,97861.75
2022-08-09T06:09:22.923Z,97871.59
2022-08-09T06:11:41.151Z,97870.53
2022-08-09T06:14:11.020Z,97869.36
2022-08-09T06:16:42.018Z,97870.20
2022-08-09T06:19:14.717Z,97868.83
2022-08-09T06:21:50.537Z,97865.84
2022-08-09T06:24:15.875Z,97861.73
2022-08-09T06:26:45.437Z,97867.77
2022-08-09T06:29:15.126Z,97864.22
2022-08-09T06:32:08.308Z,97856.00
2022-08-09T06:34:16.160Z,97856.00
2022-08-09T06:36:48.401Z,97846.69
2022-08-09T06:39:18.218Z,97839.28
2022-08-09T06:42:08.581Z,97837.66
2022-08-09T06:44:25.202Z,97834.08
2022-08-09T06:46:56.726Z,97832.14
2022-08-09T06:49:44.412Z,97826.67
2022-08-09T06:52:01.579Z,97822.02
2022-08-09T06:54:32.147Z,97821.22
2022-08-09T06:57:02.158Z,97813.81
2022-08-09T07:00:54.523Z,97803.68
2022-08-09T07:02:04.753Z,97798.77
2022-08-09T07:04:36.161Z,97791.92
2022-08-09T07:07:07.307Z,97792.19
2022-08-09T07:09:55.893Z,97799.03
2022-08-09T07:12:17.445Z,97801.77
2022-08-09T07:14:51.394Z,97796.29
2022-08-09T07:17:22.180Z,97793.28
2022-08-09T07:20:00.234Z,97791.89
2022-08-09T07:22:35.401Z,97801.22
2022-08-09T07:25:05.267Z,97793.27
2022-08-09T07:27:42.613Z,97800.13
2022-08-09T07:30:07.104Z,97799.31
2022-08-09T07:32:37.364Z,97798.20
2022-08-09T07:35:11.693Z,97798.77
2022-08-09T07:37:44.650Z,97798.77
2022-08-09T07:40:16.650Z,97793.28
2022-08-09T07:42:55.602Z,97797.11
2022-08-09T07:45:38.090Z,97798.48
2022-08-09T07:48:04.605Z,97796.59
2022-08-09T07:50:36.754Z,97796.85
2022-08-09T07:53:07.309Z,97791.92
2022-08-09T07:55:41.480Z,97797.64
2022-08-09T07:58:13.346Z,97797.92
2022-08-09T08:00:58.760Z,97791.64
2022-08-09T08:03:16.163Z,97795.75
2022-08-09T08:05:53.810Z,97792.47
2022-08-09T08:09:02.259Z,97788.92
2022-08-09T08:11:15.213Z,97793.84
2022-08-09T08:13:21.372Z,97792.19
2022-08-09T08:15:52.582Z,97791.63
2022-08-09T08:18:22.322Z,97793.55
2022-08-09T08:20:52.165Z,97799.32
2022-08-09T08:23:21.852Z,97799.32
2022-08-09T08:26:06.490Z,97817.39
2022-08-09T08:28:25.917Z,97816.58
2022-08-09T08:30:56.461Z,97807.80
2022-08-09T08:33:26.075Z,97815.21
2022-08-09T08:36:00.169Z,97812.47
2022-08-09T08:38:28.903Z,97804.78
2022-08-09T08:41:01.453Z,97819.02
2022-08-09T08:43:31.666Z,97827.25
2022-08-09T08:46:31.769Z,97823.14
2022-08-09T08:48:37.760Z,97818.48
2022-08-09T08:51:07.805Z,97823.41
2022-08-09T08:54:03.319Z,97823.41
2022-08-09T08:56:16.890Z,97826.97
2022-08-09T08:58:46.575Z,97828.34
2022-08-09T09:01:24.743Z,97824.49
2022-08-09T09:03:50.622Z,97834.92
2022-08-09T09:06:20.556Z,97835.19
2022-08-09T09:08:52.340Z,97832.72
2022-08-09T09:11:21.508Z,97826.42
2022-08-09T09:13:57.528Z,97828.34
2022-08-09T09:16:30.261Z,97822.61
2022-08-09T09:19:21.596Z,97823.42
2022-08-09T09:21:29.018Z,97834.38
2022-08-09T09:24:04.750Z,97827.53
2022-08-09T09:26:35.775Z,97836.30
2022-08-09T09:29:11.153Z,97825.04
2022-08-09T09:32:04.405Z,97829.42
2022-08-09T09:34:18.813Z,97829.43
2022-08-09T09:36:53.984Z,97829.98
2022-08-09T09:39:20.154Z,97827.52
2022-08-09T09:41:54.228Z,97836.00
2022-08-09T09:44:36.947Z,97833.26
2022-08-09T09:47:09.458Z,97833.81
2022-08-09T09:50:07.142Z,97823.13
2022-08-09T09:52:16.420Z,97813.27
2022-08-09T09:54:48.712Z,97813.56
2022-08-09T09:58:02.531Z,97817.94
2022-08-09T09:59:55.005Z,97825.88
2022-08-09T10:02:27.530Z,97832.72
2022-08-09T10:05:09.816Z,97836.56
2022-08-09T10:08:10.715Z,97839.04
2022-08-09T10:10:13.510Z,97837.12
2022-08-09T10:12:51.803Z,97838.48
2022-08-09T10:15:50.791Z,97845.34
2022-08-09T10:17:56.409Z,97840.11
2022-08-09T10:20:33.062Z,97841.45
2022-08-09T10:23:01.296Z,97843.10
2022-08-09T10:25:34.767Z,97843.11
2022-08-09T10:28:02.766Z,97840.94
2022-08-09T10:33:04.935Z,97845.86
2022-08-09T10:35:36.378Z,97850.53
2022-08-09T10:38:33.896Z,97854.09
2022-08-09T10:40:44.609Z,97848.61
2022-08-09T10:43:15.110Z,97849.42
2022-08-09T10:45:58.616Z,97852.43
2022-08-09T10:48:30.620Z,97853.80
2022-08-09T10:51:10.993Z,97847.79
2022-08-09T10:54:02.037Z,97854.09
2022-08-09T10:56:34.203Z,97857.91
2022-08-09T10:59:09.682Z,97856.83
2022-08-09T11:03:15.934Z,97854.09
2022-08-09T11:04:19.822Z,97863.95
2022-08-09T11:07:03.710Z,97868.61
2022-08-09T11:09:48.864Z,97868.05
2022-08-09T11:12:29.778Z,97866.68
2022-08-09T11:15:02.171Z,97866.91
2022-08-09T11:17:41.787Z,97866.34
2022-08-09T11:20:22.108Z,97865.00
2022-08-09T11:22:57.080Z,97868.30
2022-08-09T11:25:46.087Z,97872.94
2022-08-09T11:28:34.648Z,97864.47
2022-08-09T11:31:06.868Z,97876.79
2022-08-09T11:33:51.233Z,97877.05
2022-08-09T11:36:30.290Z,97872.95
2022-08-09T11:39:06.128Z,97878.72
2022-08-09T11:41:40.259Z,97874.06
2022-08-09T11:44:10.702Z,97877.61
2022-08-09T11:46:55.155Z,97880.36
2022-08-09T11:50:55.475Z,97886.12
2022-08-09T11:53:02.308Z,97895.71
2022-08-09T11:55:52.086Z,97897.08
2022-08-09T11:58:19.672Z,97898.45
2022-08-09T12:00:54.360Z,97908.03
2022-08-09T12:03:54.987Z,97904.20
2022-08-09T12:05:58.880Z,97909.12
2022-08-09T12:08:29.634Z,97907.75
2022-08-09T12:11:01.337Z,97909.67
2022-08-09T12:14:09.408Z,97915.41
2022-08-09T12:16:30.333Z,97928.56
2022-08-09T12:18:54.192Z,97925.81
2022-08-09T12:21:38.198Z,97921.70
2022-08-09T12:24:09.107Z,97922.26
2022-08-09T12:29:11.818Z,97929.92
2022-08-09T12:29:33.626Z,97933.52
2022-08-09T12:32:02.524Z,97943.36
2022-08-09T12:34:25.893Z,97932.14
2022-08-09T12:37:09.785Z,97935.70
2022-08-09T12:39:31.779Z,97941.73
2022-08-09T12:42:16.253Z,97952.68
2022-08-09T12:44:51.936Z,97959.80
2022-08-09T12:47:18.043Z,97973.75
2022-08-09T12:49:52.784Z,97998.41
2022-08-09T12:52:21.993Z,98014.32
2022-08-09T12:56:12.832Z,98028.83
2022-08-09T12:57:39.451Z,98048.00
2022-08-09T13:00:25.425Z,98063.62
2022-08-09T13:03:09.884Z,98067.17
2022-08-09T13:06:15.925Z,98065.64
2022-08-09T13:08:35.413Z,98074.16
2022-08-09T13:10:58.727Z,98079.31
2022-08-09T13:13:38.020Z,98096.95
2022-08-09T13:16:07.879Z,98110.69
2022-08-09T13:18:53.548Z,98106.36
2022-08-09T13:22:36.031Z,98100.33
2022-08-09T13:24:42.239Z,98103.14
2022-08-09T13:26:44.303Z,98100.48
2022-08-09T13:29:28.587Z,98104.37
2022-08-09T13:32:16.108Z,98109.14
2022-08-09T13:34:41.645Z,98108.16
2022-08-09T13:37:12.037Z,98108.80
2022-08-09T13:41:50.893Z,98112.40
2022-08-09T13:42:15.383Z,98118.98
2022-08-09T13:44:49.231Z,98115.71
2022-08-09T13:47:33.499Z,98124.01
2022-08-09T13:49:57.402Z,98124.86
2022-08-09T13:52:24.938Z,98123.02
2022-08-09T13:54:59.763Z,98115.66
2022-08-09T13:57:36.423Z,98114.86
2022-08-09T14:00:01.260Z,98117.72
2022-08-09T14:02:31.026Z,98120.39
2022-08-09T14:05:02.636Z,98125.40
2022-08-09T14:07:42.212Z,98121.35
2022-08-09T14:10:07.928Z,98114.29
2022-08-09T14:12:39.434Z,98115.91
2022-08-09T14:16:06.327Z,98115.75
2022-08-09T14:18:06.543Z,98115.23
2022-08-09T14:20:14.352Z,98125.68
2022-08-09T14:25:18.357Z,98124.11
2022-08-09T14:27:58.261Z,98130.33
2022-08-09T14:30:37.222Z,98125.87
2022-08-09T14:32:56.154Z,98123.48
2022-08-09T14:35:27.324Z,98118.05
2022-08-09T14:38:02.550Z,98122.97
2022-08-09T14:40:37.996Z,98128.77
2022-08-09T14:43:01.937Z,98125.37
2022-08-09T14:47:01.153Z,98121.03
2022-08-09T14:48:06.044Z,98115.03
2022-08-09T14:50:37.563Z,98127.13
2022-08-09T14:53:11.335Z,98117.58
2022-08-09T14:55:42.130Z,98113.66
2022-08-09T14:58:12.260Z,98108.39
2022-08-09T15:00:48.276Z,98105.69
2022-08-09T15:03:16.691Z,98101.88
2022-08-09T15:05:52.393Z,98102.72
2022-08-09T15:08:18.971Z,98102.17
2022-08-09T15:11:00.995Z,98096.55
2022-08-09T15:13:20.050Z,98100.12
2022-08-09T15:15:51.859Z,98095.78
2022-08-09T15:18:23.000Z,98083.49
2022-08-09T15:21:54.854Z,98082.70
2022-08-09T15:24:09.367Z,98077.23
2022-08-09T15:25:59.719Z,98073.41
2022-08-09T15:28:33.228Z,98080.93
2022-08-09T15:31:09.833Z,98073.52
2022-08-09T15:33:33.613Z,98076.03
2022-08-09T15:36:06.101Z,98082.32
2022-08-09T15:38:37.058Z,98077.67
2022-08-09T15:41:09.776Z,98084.51
2022-08-09T15:43:42.244Z,98078.22
2022-08-09T15:46:33.613Z,98082.05
2022-08-09T15:48:44.198Z,98088.77
2022-08-09T15:51:44.480Z,98084.12
2022-08-09T15:54:05.508Z,98086.07
2022-08-09T15:56:28.643Z,98087.16
2022-08-09T15:58:51.066Z,98083.63
2022-08-09T16:01:24.716Z,98084.73
2022-08-09T16:04:00.136Z,98086.89
2022-08-09T16:06:35.841Z,98086.80
2022-08-09T16:09:06.418Z,98088.20
2022-08-09T16:11:36.135Z,98083.31
2022-08-09T16:14:08.201Z,98080.84
2022-08-09T16:16:39.084Z,98081.14
2022-08-09T16:19:10.025Z,98081.97
2022-08-09T16:21:40.119Z,98085.73
2022-08-09T16:24:30.251Z,98053.00
2022-08-09T16:26:42.157Z,98084.12
2022-08-09T16:29:13.614Z,98084.40
2022-08-09T16:32:19.375Z,98083.34
2022-08-09T16:34:19.589Z,98086.34
2022-08-09T16:36:51.021Z,98092.94
2022-08-09T16:39:20.996Z,98092.08
2022-08-09T16:42:02.784Z,98093.45
2022-08-09T16:44:27.800Z,98089.35
2022-08-09T16:47:03.839Z,98093.45
2022-08-09T16:50:29.396Z,98094.81
2022-08-09T16:52:03.705Z,98087.16
2022-08-09T16:54:34.984Z,98089.08
2022-08-09T16:57:06.982Z,98084.97
2022-08-09T16:59:36.673Z,98095.91
2022-08-09T17:02:08.194Z,98087.44
2022-08-09T17:04:40.413Z,98090.96
2022-08-09T17:08:44.992Z,98095.86
2022-08-09T17:09:48.479Z,98096.95
2022-08-09T17:12:20.272Z,98093.40
2022-08-09T17:14:57.655Z,98090.12
2022-08-09T17:17:26.680Z,98083.28
2022-08-09T17:20:28.603Z,98078.63
2022-08-09T17:22:30.888Z,98076.69
2022-08-09T17:25:02.550Z,98075.63
2022-08-09T17:27:30.578Z,98075.34
2022-08-09T17:30:06.894Z,98069.88
2022-08-09T17:32:38.019Z,98067.14
2022-08-09T17:35:12.063Z,98069.33
2022-08-09T17:38:11.377Z,98058.67
2022-08-09T17:40:18.242Z,98054.56
2022-08-09T17:42:43.255Z,98047.73
2022-08-09T17:45:16.113Z,98043.33
2022-08-09T17:47:49.852Z,98034.60
2022-08-09T17:50:36.436Z,98032.39
2022-08-09T17:52:49.139Z,98024.18
2022-08-09T17:55:20.155Z,98027.46
2022-08-09T17:58:03.937Z,98031.02
2022-08-09T18:00:33.513Z,98025.55
2022-08-09T18:02:58.468Z,98022.30
2022-08-09T18:05:38.836Z,98016.28
2022-08-09T18:07:57.340Z,98011.36
2022-08-09T18:10:29.796Z,98014.36
2022-08-09T18:13:39.732Z,98013.27
2022-08-09T18:16:07.480Z,98004.55
2022-08-09T18:18:07.830Z,97999.35
2022-08-09T18:21:00.523Z,97994.15
2022-08-09T18:23:08.461Z,97988.69
2022-08-09T18:25:50.383Z,97987.62
2022-08-09T18:28:21.001Z,97984.60
2022-08-09T18:30:48.835Z,97980.26
2022-08-09T18:33:15.134Z,97976.16
2022-08-09T18:35:58.765Z,97969.59
2022-08-09T18:38:16.276Z,97970.16
2022-08-09T18:40:46.034Z,97966.87
2022-08-09T18:43:15.805Z,97955.69
2022-08-09T18:46:46.178Z,97948.84
2022-08-09T18:48:17.600Z,97952.13
2022-08-09T18:50:47.882Z,97946.66
2022-08-09T18:53:17.594Z,97938.45
2022-08-09T18:55:57.155Z,97936.83
2022-08-09T18:58:31.989Z,97925.09
2022-08-09T19:00:55.852Z,97923.17
2022-08-09T19:03:27.461Z,97921.26
2022-08-09T19:06:02.883Z,97914.42
2022-08-09T19:08:31.169Z,97911.14
2022-08-09T19:13:51.383Z,97899.16
2022-08-09T19:16:11.486Z,97893.89
2022-08-09T19:18:45.288Z,97898.84
2022-08-09T19:21:14.606Z,97889.57
2022-08-09T19:24:35.889Z,97892.58
2022-08-09T19:26:18.337Z,97891.48
2022-08-09T19:28:49.744Z,97890.67
2022-08-09T19:31:20.219Z,97882.47
2022-08-09T19:34:02.911Z,97880.28
2022-08-09T19:36:34.342Z,97874.56
2022-08-09T19:39:05.576Z,97871.28
2022-08-09T19:41:35.913Z,97877.02
2022-08-09T19:44:05.962Z,97871.55
2022-08-09T19:46:50.280Z,97864.16
2022-08-09T19:50:08.382Z,97864.70
2022-08-09T19:51:38.458Z,97867.45
2022-08-09T19:54:10.274Z,97865.27
2022-08-09T19:56:44.571Z,97856.78
2022-08-09T19:59:40.129Z,97854.59
2022-08-09T20:01:53.174Z,97858.15
2022-08-09T20:04:21.162Z,97856.78
2022-08-09T20:06:49.376Z,97852.16
2022-08-09T20:09:45.163Z,97847.50
2022-08-09T20:11:53.221Z,97848.32
2022-08-09T20:14:24.767Z,97843.12
2022-08-09T20:16:57.006Z,97831.61
2022-08-09T20:19:49.583Z,97834.09
2022-08-09T20:22:00.168Z,97834.91
2022-08-09T20:24:33.491Z,97831.10
2022-08-09T20:27:02.185Z,97830.55
2022-08-09T20:29:37.240Z,97824.27
2022-08-09T20:32:30.351Z,97816.33
2022-08-09T20:34:35.255Z,97811.97
2022-08-09T20:37:04.961Z,97811.97
2022-08-09T20:40:15.232Z,97808.13
2022-08-09T20:42:06.678Z,97806.20
2022-08-09T20:44:36.638Z,97807.58
2022-08-09T20:47:06.709Z,97807.33
2022-08-09T20:49:38.095Z,97800.20
2022-08-09T20:52:11.130Z,97795.83
2022-08-09T20:54:52.594Z,97799.13
2022-08-09T20:57:13.677Z,97793.10
2022-08-09T21:00:19.504Z,97790.37
2022-08-09T21:02:18.583Z,97787.38
2022-08-09T21:05:53.798Z,97784.91
2022-08-09T21:07:30.296Z,97783.83
2022-08-09T21:09:58.649Z,97772.89
2022-08-09T21:15:03.394Z,97762.23
2022-08-09T21:18:22.400Z,97766.06
2022-08-09T21:20:22.287Z,97760.33
2022-08-09T21:22:39.418Z,97755.13
2022-08-09T21:25:25.566Z,97752.68
2022-08-09T21:27:57.938Z,97750.77
2022-08-09T21:30:30.159Z,97740.63
2022-08-09T21:33:02.172Z,97737.64
2022-08-09T21:35:31.749Z,97731.61
2022-08-09T21:38:03.586Z,97727.22
2022-08-09T21:40:33.561Z,97711.62
2022-08-09T21:43:03.302Z,97708.63
2022-08-09T21:45:39.115Z,97708.63
2022-08-09T21:48:06.707Z,97698.78
2022-08-09T21:50:39.141Z,97691.94
2022-08-09T21:53:24.022Z,97695.20
2022-08-09T21:55:46.512Z,97693.31
2022-08-09T21:58:14.177Z,97684.55
2022-08-09T22:00:44.354Z,97688.92
2022-08-09T22:03:19.655Z,97687.30
2022-08-09T22:05:46.874Z,97684.00
2022-08-09T22:08:18.146Z,97673.32
2022-08-09T22:11:01.091Z,97671.40
2022-08-09T22:13:21.456Z,97674.43
2022-08-09T22:15:51.467Z,97675.51
2022-08-09T22:18:21.985Z,97686.75
2022-08-09T22:20:54.607Z,97682.91
2022-08-09T22:23:26.052Z,97688.65
2022-08-09T22:26:08.249Z,97684.55
2022-08-09T22:28:33.052Z,97679.91
2022-08-09T22:31:00.499Z,97689.20
2022-08-09T22:33:42.694Z,97682.92
2022-08-09T22:36:03.771Z,97683.47
2022-08-09T22:38:33.178Z,97681.00
2022-08-09T22:41:02.805Z,97672.53
2022-08-09T22:44:03.348Z,97677.45
2022-08-09T22:48:14.136Z,97676.89
2022-08-09T22:48:36.828Z,97681.30
2022-08-09T22:51:10.280Z,97685.41
2022-08-09T22:53:58.548Z,97685.66
2022-08-09T22:56:33.419Z,97689.77
2022-08-09T22:58:43.352Z,97697.70
2022-08-09T23:01:13.330Z,97695.78
2022-08-09T23:04:06.014Z,97702.62
2022-08-09T23:06:14.519Z,97703.73
2022-08-09T23:08:53.982Z,97698.81
2022-08-09T23:11:24.099Z,97700.19
2022-08-09T23:13:54.737Z,97697.19
2022-08-09T23:16:25.442Z,97698.81
2022-08-09T23:18:56.298Z,97698.55
2022-08-09T23:21:32.780Z,97706.48
2022-08-09T23:24:05.973Z,97716.32
2022-08-09T23:26:30.510Z,97717.17
2022-08-09T23:29:03.251Z,97724.83
2022-08-09T23:31:38.394Z,97716.88
2022-08-09T23:34:07.992Z,97727.02
2022-08-09T23:36:40.171Z,97729.20
2022-08-09T23:39:13.992Z,97726.76
2022-08-09T23:41:46.007Z,97730.02
2022-08-09T23:44:15.318Z,97733.05
2022-08-09T23:46:47.086Z,97730.31
2022-08-09T23:49:38.063Z,97730.31
2022-08-09T23:52:07.848Z,97720.17
2022-08-09T23:54:38.850Z,97722.91
2022-08-09T23:57:14.490Z,97730.58
